Terminal Aerodrome Forecast
Issued by NWS San Angelo, TX

Home | Current Version | Previous Version | Text Only | Print | Product List | Glossary On
Versions: 1 2 3 4 5 6 7 8 9 10 11 12 13 14
000
FTUS44 KSJT 222054 AAB
TAFSJT
TAF AMD
KSJT 222054Z 2221/2318 15010G16KT P6SM FEW090
     FM230000 15009KT P6SM SCT250
     FM231500 19009KT P6SM SCT250=

USA.gov is the U.S. government's official web portal to all federal, state and local government web resources and services.